createdAt,value
2018-10-09T00:01:31.419Z,18.23
2018-10-09T00:04:02.004Z,19.53
2018-10-09T00:06:32.738Z,18.27
2018-10-09T00:09:03.439Z,19.27
2018-10-09T00:11:34.126Z,17.73
2018-10-09T00:14:05.266Z,17.30
2018-10-09T00:16:36.402Z,18.00
2018-10-09T00:19:07.121Z,18.07
2018-10-09T00:21:37.766Z,18.20
2018-10-09T00:24:08.903Z,18.23
2018-10-09T00:26:39.489Z,18.53
2018-10-09T00:29:10.166Z,17.63
2018-10-09T00:31:40.784Z,18.27
2018-10-09T00:34:11.383Z,18.07
2018-10-09T00:36:42.058Z,19.40
2018-10-09T00:39:12.648Z,19.13
2018-10-09T00:41:43.241Z,18.30
2018-10-09T00:44:13.975Z,18.70
2018-10-09T00:46:44.467Z,18.73
2018-10-09T00:49:15.237Z,18.13
2018-10-09T00:51:45.964Z,18.27
2018-10-09T00:54:16.563Z,17.93
2018-10-09T00:56:47.601Z,18.57
2018-10-09T00:59:18.267Z,19.33
2018-10-09T01:01:48.920Z,18.17
2018-10-09T01:04:19.503Z,18.07
2018-10-09T01:06:50.677Z,19.07
2018-10-09T01:09:21.596Z,18.03
2018-10-09T01:11:52.324Z,17.97
2018-10-09T01:14:23.494Z,18.13
2018-10-09T01:16:54.139Z,17.97
2018-10-09T01:19:24.788Z,18.10
2018-10-09T01:21:55.445Z,18.37
2018-10-09T01:24:26.493Z,18.53
2018-10-09T01:26:57.291Z,19.27
2018-10-09T01:29:28.084Z,19.30
2018-10-09T01:31:58.704Z,19.73
2018-10-09T01:34:29.257Z,20.57
2018-10-09T01:36:59.878Z,21.13
2018-10-09T01:39:30.561Z,21.50
2018-10-09T01:42:01.081Z,22.43
2018-10-09T01:44:31.665Z,22.50
2018-10-09T01:47:02.565Z,21.43
2018-10-09T01:49:33.276Z,24.03
2018-10-09T01:52:03.939Z,24.30
2018-10-09T01:54:34.688Z,26.83
2018-10-09T01:57:05.367Z,34.77
2018-10-09T01:59:35.980Z,30.30
2018-10-09T02:02:06.908Z,28.80
2018-10-09T02:04:37.555Z,27.97
2018-10-09T02:07:08.276Z,27.53
2018-10-09T02:09:38.853Z,24.03
2018-10-09T02:12:09.570Z,19.83
2018-10-09T02:14:40.194Z,18.27
2018-10-09T02:17:10.799Z,17.50
2018-10-09T02:19:41.923Z,17.37
2018-10-09T02:22:12.679Z,16.53
2018-10-09T02:24:43.273Z,16.87
2018-10-09T02:27:13.856Z,16.40
2018-10-09T02:29:44.583Z,17.10
2018-10-09T02:32:15.858Z,17.60
2018-10-09T02:34:46.478Z,18.00
2018-10-09T02:37:19.872Z,17.47
2018-10-09T02:39:50.764Z,17.43
2018-10-09T02:42:21.327Z,17.27
2018-10-09T02:44:52.005Z,17.73
2018-10-09T02:47:22.923Z,17.70
2018-10-09T02:49:53.541Z,17.70
2018-10-09T02:52:24.805Z,17.70
2018-10-09T02:54:55.341Z,18.23
2018-10-09T02:57:26.034Z,17.80
2018-10-09T02:59:56.641Z,17.67
2018-10-09T03:02:27.580Z,17.10
2018-10-09T03:04:58.221Z,18.00
2018-10-09T03:07:29.007Z,18.03
2018-10-09T03:09:59.714Z,16.63
2018-10-09T03:12:30.603Z,17.80
2018-10-09T03:15:03.049Z,17.67
2018-10-09T03:17:33.690Z,17.67
2018-10-09T03:20:04.392Z,18.80
2018-10-09T03:22:35.022Z,19.63
2018-10-09T03:25:05.792Z,20.10
2018-10-09T03:27:36.447Z,20.03
2018-10-09T03:30:09.335Z,20.00
2018-10-09T03:32:39.899Z,19.67
2018-10-09T03:35:10.435Z,19.47
2018-10-09T03:37:41.029Z,18.93
2018-10-09T03:40:11.659Z,18.73
2018-10-09T03:42:42.272Z,21.47
2018-10-09T03:45:12.793Z,22.70
2018-10-09T03:47:43.445Z,20.37
2018-10-09T03:50:14.157Z,20.40
2018-10-09T03:52:44.821Z,19.87
2018-10-09T03:55:15.540Z,19.33
2018-10-09T03:57:46.150Z,20.50
2018-10-09T04:00:16.771Z,23.37
2018-10-09T04:02:47.342Z,23.97
2018-10-09T04:05:18.122Z,21.40
2018-10-09T04:07:48.700Z,22.03
2018-10-09T04:10:19.382Z,21.43
2018-10-09T04:12:50.244Z,22.00
2018-10-09T04:15:21.055Z,20.93
2018-10-09T04:17:51.654Z,22.07
2018-10-09T04:20:22.216Z,20.50
2018-10-09T04:22:53.086Z,21.40
2018-10-09T04:25:24.674Z,20.60
2018-10-09T04:27:55.476Z,21.43
2018-10-09T04:30:26.144Z,21.37
2018-10-09T04:32:56.827Z,21.43
2018-10-09T04:35:27.476Z,22.93
2018-10-09T04:37:58.133Z,23.60
2018-10-09T04:40:28.859Z,23.57
2018-10-09T04:42:59.569Z,23.13
2018-10-09T04:45:31.099Z,22.83
2018-10-09T04:48:02.552Z,22.73
2018-10-09T04:50:33.278Z,22.27
2018-10-09T04:53:03.956Z,23.63
2018-10-09T04:55:34.514Z,22.97
2018-10-09T04:58:05.240Z,25.20
2018-10-09T05:00:35.853Z,25.40
2018-10-09T05:03:06.695Z,25.20
2018-10-09T05:05:37.684Z,23.80
2018-10-09T05:08:08.816Z,25.83
2018-10-09T05:10:39.599Z,24.83
2018-10-09T05:13:10.515Z,24.13
2018-10-09T05:15:41.449Z,25.03
2018-10-09T05:18:12.430Z,24.50
2018-10-09T05:20:43.177Z,24.23
2018-10-09T05:23:14.276Z,24.50
2018-10-09T05:25:45.027Z,23.20
2018-10-09T05:28:16.258Z,24.67
2018-10-09T05:30:47.108Z,23.27
2018-10-09T05:33:17.939Z,24.37
2018-10-09T05:35:48.949Z,23.97
2018-10-09T05:38:19.670Z,24.17
2018-10-09T05:40:50.478Z,24.67
2018-10-09T05:43:21.270Z,25.27
2018-10-09T05:45:52.359Z,25.80
2018-10-09T05:48:23.556Z,24.10
2018-10-09T05:50:54.420Z,24.40
2018-10-09T05:53:25.224Z,23.97
2018-10-09T05:55:56.073Z,25.60
2018-10-09T05:58:26.770Z,25.17
2018-10-09T06:00:57.509Z,24.33
2018-10-09T06:03:28.367Z,24.97
2018-10-09T06:05:59.307Z,25.27
2018-10-09T06:08:30.043Z,24.57
2018-10-09T06:11:01.039Z,22.53
2018-10-09T06:13:31.926Z,22.80
2018-10-09T06:16:02.853Z,22.70
2018-10-09T06:18:33.618Z,21.23
2018-10-09T06:21:05.240Z,19.77
2018-10-09T06:23:36.029Z,19.40
2018-10-09T06:26:07.241Z,17.90
2018-10-09T06:28:38.184Z,17.83
2018-10-09T06:31:09.186Z,18.37
2018-10-09T06:33:40.253Z,17.17
2018-10-09T06:36:10.998Z,17.00
2018-10-09T06:38:42.087Z,17.13
2018-10-09T06:41:13.060Z,15.57
2018-10-09T06:43:43.849Z,15.53
2018-10-09T06:46:19.767Z,16.30
2018-10-09T06:48:50.986Z,14.67
2018-10-09T06:51:22.053Z,14.57
2018-10-09T06:53:52.913Z,15.33
2018-10-09T06:56:23.666Z,14.43
2018-10-09T06:58:54.531Z,14.40
2018-10-09T07:01:25.527Z,14.67
2018-10-09T07:03:56.266Z,14.23
2018-10-09T07:06:27.030Z,15.27
2018-10-09T07:08:57.724Z,15.27
2018-10-09T07:11:28.590Z,13.40
2018-10-09T07:13:59.367Z,16.10
2018-10-09T07:16:30.105Z,13.17
2018-10-09T07:19:01.015Z,13.33
2018-10-09T07:21:31.760Z,13.97
2018-10-09T07:24:03.017Z,22.13
2018-10-09T07:26:33.797Z,25.03
2018-10-09T07:29:04.577Z,20.90
2018-10-09T07:31:35.758Z,30.60
2018-10-09T07:34:06.802Z,35.37
2018-10-09T07:36:37.599Z,15.47
2018-10-09T07:39:11.751Z,17.30
2018-10-09T07:41:43.047Z,32.40
2018-10-09T07:44:13.773Z,14.83
2018-10-09T07:46:44.659Z,12.53
2018-10-09T07:49:15.326Z,33.93
2018-10-09T07:51:46.063Z,11.47
2018-10-09T07:54:17.110Z,11.00
2018-10-09T07:56:47.853Z,10.50
2018-10-09T07:59:19.089Z,10.37
2018-10-09T08:01:50.275Z,11.10
2018-10-09T08:04:21.124Z,13.30
2018-10-09T08:06:51.918Z,11.73
2018-10-09T08:09:22.966Z,17.73
2018-10-09T08:11:53.701Z,13.30
2018-10-09T08:14:31.174Z,11.47
2018-10-09T08:17:03.269Z,13.70
2018-10-09T08:19:34.679Z,19.27
2018-10-09T08:22:05.344Z,25.87
2018-10-09T08:24:35.972Z,9.90
2018-10-09T08:27:07.279Z,11.93
2018-10-09T08:29:38.613Z,9.90
2018-10-09T08:32:10.300Z,11.23
2018-10-09T08:34:41.493Z,11.40
2018-10-09T08:37:12.321Z,10.07
2018-10-09T08:39:43.457Z,10.20
2018-10-09T08:42:15.531Z,9.17
2018-10-09T08:44:46.558Z,22.13
2018-10-09T08:47:18.487Z,18.17
2018-10-09T08:49:49.225Z,12.70
2018-10-09T08:52:20.669Z,10.67
2018-10-09T08:54:51.634Z,10.43
2018-10-09T08:57:22.261Z,20.07
2018-10-09T08:59:52.950Z,17.17
2018-10-09T09:02:23.513Z,12.37
2018-10-09T09:04:54.105Z,11.47
2018-10-09T09:07:24.669Z,12.67
2018-10-09T09:09:55.356Z,32.00
2018-10-09T09:12:26.464Z,14.00
2018-10-09T09:14:57.239Z,12.20
2018-10-09T09:17:27.951Z,41.70
2018-10-09T09:19:58.820Z,18.80
2018-10-09T09:22:29.480Z,15.90
2018-10-09T09:25:00.085Z,17.20
2018-10-09T09:27:31.116Z,29.47
2018-10-09T09:30:01.729Z,25.80
2018-10-09T09:32:32.415Z,17.50
2018-10-09T09:35:02.979Z,12.30
2018-10-09T09:37:33.537Z,10.93
2018-10-09T09:40:04.261Z,11.60
2018-10-09T09:42:34.807Z,25.60
2018-10-09T09:45:05.680Z,25.73
2018-10-09T09:47:36.265Z,35.40
2018-10-09T09:50:07.384Z,23.43
2018-10-09T09:52:37.965Z,19.47
2018-10-09T09:55:08.769Z,15.63
2018-10-09T09:57:39.447Z,14.70
2018-10-09T10:00:15.126Z,11.47
2018-10-09T10:02:45.788Z,12.27
2018-10-09T10:05:16.671Z,20.37
2018-10-09T10:07:47.574Z,11.20
2018-10-09T10:10:18.477Z,10.73
2018-10-09T10:12:49.679Z,9.53
2018-10-09T10:15:20.400Z,9.80
2018-10-09T10:17:51.006Z,9.17
2018-10-09T10:20:21.587Z,9.60
2018-10-09T10:22:52.279Z,10.07
2018-10-09T10:25:22.981Z,10.20
2018-10-09T10:27:53.553Z,9.90
2018-10-09T10:30:24.224Z,10.80
2018-10-09T10:32:56.133Z,9.80
2018-10-09T10:35:26.946Z,10.60
2018-10-09T10:37:57.538Z,9.20
2018-10-09T10:40:28.096Z,9.33
2018-10-09T10:42:58.959Z,9.20
2018-10-09T10:45:29.617Z,9.63
2018-10-09T10:48:00.296Z,8.47
2018-10-09T10:50:31.034Z,9.63
2018-10-09T10:53:01.926Z,9.70
2018-10-09T10:55:32.682Z,9.77
2018-10-09T10:58:03.288Z,10.17
2018-10-09T11:00:34.013Z,11.10
2018-10-09T11:03:04.828Z,10.80
2018-10-09T11:05:35.577Z,8.13
2018-10-09T11:08:06.480Z,8.37
2018-10-09T11:10:37.042Z,9.27
2018-10-09T11:13:07.975Z,6.70
2018-10-09T11:15:38.623Z,6.93
2018-10-09T11:18:09.396Z,6.17
2018-10-09T11:20:40.229Z,6.10
2018-10-09T11:23:10.853Z,11.40
2018-10-09T11:25:42.010Z,11.47
2018-10-09T11:28:12.769Z,7.27
2018-10-09T11:30:43.538Z,14.93
2018-10-09T11:33:14.415Z,14.67
2018-10-09T11:35:45.274Z,8.90
2018-10-09T11:38:15.850Z,6.57
2018-10-09T11:40:46.411Z,7.03
2018-10-09T11:43:17.166Z,6.43
2018-10-09T11:45:47.726Z,6.60
2018-10-09T11:48:18.398Z,6.83
2018-10-09T11:50:48.969Z,6.40
2018-10-09T11:53:19.797Z,6.47
2018-10-09T11:55:50.549Z,7.00
2018-10-09T11:58:21.518Z,7.20
2018-10-09T12:00:54.515Z,6.87
2018-10-09T12:03:25.177Z,7.20
2018-10-09T12:05:56.010Z,7.33
2018-10-09T12:08:26.698Z,7.40
2018-10-09T12:10:57.312Z,7.60
2018-10-09T12:13:28.125Z,6.27
2018-10-09T12:15:58.799Z,6.03
2018-10-09T12:18:29.318Z,6.50
2018-10-09T12:21:00.184Z,7.07
2018-10-09T12:23:30.942Z,7.07
2018-10-09T12:26:01.730Z,6.93
2018-10-09T12:28:32.400Z,7.40
2018-10-09T12:31:03.065Z,6.00
2018-10-09T12:33:33.673Z,6.97
2018-10-09T12:36:04.415Z,6.13
2018-10-09T12:38:35.406Z,6.17
2018-10-09T12:41:06.089Z,5.43
2018-10-09T12:43:36.860Z,5.40
2018-10-09T12:46:07.393Z,5.93
2018-10-09T12:48:38.106Z,5.33
2018-10-09T12:51:08.754Z,5.47
2018-10-09T12:53:39.429Z,5.83
2018-10-09T12:56:09.951Z,5.53
2018-10-09T12:58:40.698Z,5.27
2018-10-09T13:01:11.686Z,5.70
2018-10-09T13:03:42.391Z,5.60
2018-10-09T13:06:13.706Z,5.70
2018-10-09T13:08:44.364Z,6.23
2018-10-09T13:11:15.313Z,5.73
2018-10-09T13:13:46.141Z,5.90
2018-10-09T13:16:16.860Z,6.13
2018-10-09T13:18:47.702Z,11.67
2018-10-09T13:21:18.474Z,6.27
2018-10-09T13:23:49.033Z,5.37
2018-10-09T13:26:19.713Z,5.80
2018-10-09T13:28:50.277Z,5.13
2018-10-09T13:31:21.187Z,6.07
2018-10-09T13:33:51.780Z,6.37
2018-10-09T13:36:22.423Z,5.37
2018-10-09T13:38:53.073Z,6.03
2018-10-09T13:41:24.330Z,5.77
2018-10-09T13:43:54.978Z,5.77
2018-10-09T13:46:25.705Z,5.47
2018-10-09T13:48:56.566Z,5.10
2018-10-09T13:51:27.259Z,5.67
2018-10-09T13:53:57.995Z,5.30
2018-10-09T13:56:28.689Z,5.63
2018-10-09T13:58:59.260Z,5.77
2018-10-09T14:01:30.200Z,6.93
2018-10-09T14:04:00.781Z,5.17
2018-10-09T14:06:31.296Z,6.00
2018-10-09T14:09:02.189Z,6.27
2018-10-09T14:15:01.082Z,5.70
2018-10-09T14:17:31.845Z,5.43
2018-10-09T14:20:02.513Z,5.50
2018-10-09T14:22:33.316Z,5.97
2018-10-09T14:25:04.024Z,5.93
2018-10-09T14:27:36.471Z,6.40
2018-10-09T14:30:07.616Z,6.30
2018-10-09T14:32:38.552Z,6.50
2018-10-09T14:35:10.477Z,6.07
2018-10-09T14:37:41.212Z,6.23
2018-10-09T14:40:12.058Z,5.67
2018-10-09T14:42:42.981Z,6.57
2018-10-09T14:45:13.862Z,6.03
2018-10-09T14:47:44.385Z,6.47
2018-10-09T14:50:15.005Z,7.67
2018-10-09T14:52:45.531Z,6.47
2018-10-09T14:55:16.277Z,6.93
2018-10-09T14:57:46.922Z,6.33
2018-10-09T15:00:17.487Z,5.47
2018-10-09T15:02:48.171Z,6.50
2018-10-09T15:05:18.823Z,5.30
2018-10-09T15:07:49.543Z,5.47
2018-10-09T15:10:20.408Z,5.90
2018-10-09T15:12:51.198Z,5.10
2018-10-09T15:15:21.750Z,7.83
2018-10-09T15:17:52.653Z,19.43
2018-10-09T15:20:23.476Z,7.20
2018-10-09T15:22:54.301Z,5.57
2018-10-09T15:25:25.204Z,7.03
2018-10-09T15:27:56.304Z,8.73
2018-10-09T15:30:27.260Z,7.13
2018-10-09T15:32:59.960Z,8.20
2018-10-09T15:35:30.732Z,6.40
2018-10-09T15:38:01.286Z,5.60
2018-10-09T15:40:32.318Z,5.50
2018-10-09T15:43:03.191Z,7.20
2018-10-09T15:45:33.765Z,6.87
2018-10-09T15:48:04.400Z,9.70
2018-10-09T15:50:35.661Z,8.70
2018-10-09T15:53:07.605Z,6.47
2018-10-09T15:55:38.333Z,6.83
2018-10-09T15:58:09.176Z,6.47
2018-10-09T16:00:40.178Z,5.87
2018-10-09T16:03:10.853Z,6.20
2018-10-09T16:05:41.481Z,6.57
2018-10-09T16:08:12.217Z,6.43
2018-10-09T16:10:42.850Z,7.10
2018-10-09T16:13:13.430Z,6.40
2018-10-09T16:15:44.026Z,7.20
2018-10-09T16:18:14.623Z,7.10
2018-10-09T16:20:45.168Z,7.13
2018-10-09T16:23:15.891Z,6.63
2018-10-09T16:25:46.530Z,7.93
2018-10-09T16:28:17.064Z,7.73
2018-10-09T16:30:47.715Z,7.17
2018-10-09T16:33:18.382Z,6.70
2018-10-09T16:35:48.955Z,7.50
2018-10-09T16:38:20.095Z,6.90
2018-10-09T16:40:51.649Z,6.63
2018-10-09T16:43:22.423Z,7.50
2018-10-09T16:45:53.183Z,8.27
2018-10-09T16:48:23.820Z,8.30
2018-10-09T16:50:54.637Z,7.33
2018-10-09T16:53:25.435Z,7.70
2018-10-09T16:55:55.981Z,7.77
2018-10-09T16:58:26.594Z,7.43
2018-10-09T17:00:57.215Z,7.73
2018-10-09T17:03:28.188Z,8.20
2018-10-09T17:05:58.862Z,8.07
2018-10-09T17:08:29.456Z,9.13
2018-10-09T17:11:00.180Z,10.90
2018-10-09T17:13:30.824Z,11.00
2018-10-09T17:16:01.514Z,11.90
2018-10-09T17:18:32.439Z,12.77
2018-10-09T17:21:03.389Z,13.57
2018-10-09T17:23:34.206Z,11.60
2018-10-09T17:26:07.614Z,11.30
2018-10-09T17:28:40.822Z,10.37
2018-10-09T17:31:11.566Z,10.43
2018-10-09T17:33:42.268Z,10.90
2018-10-09T17:36:13.703Z,9.90
2018-10-09T17:38:44.473Z,10.63
2018-10-09T17:41:15.126Z,15.87
2018-10-09T17:43:45.961Z,10.97
2018-10-09T17:46:17.293Z,10.87
2018-10-09T17:48:49.047Z,10.53
2018-10-09T17:51:20.949Z,11.37
2018-10-09T17:53:53.385Z,10.97
2018-10-09T17:56:25.574Z,10.50
2018-10-09T17:58:56.562Z,11.17
2018-10-09T18:01:29.376Z,11.13
2018-10-09T18:03:59.961Z,11.90
2018-10-09T18:06:30.954Z,11.47
2018-10-09T18:09:01.595Z,12.27
2018-10-09T18:11:33.968Z,21.10
2018-10-09T18:14:04.790Z,16.53
2018-10-09T18:16:36.416Z,15.63
2018-10-09T18:19:09.200Z,12.73
2018-10-09T18:21:41.275Z,13.73
2018-10-09T18:24:13.817Z,13.47
2018-10-09T18:26:44.741Z,13.00
2018-10-09T18:29:16.798Z,11.83
2018-10-09T18:31:47.356Z,12.67
2018-10-09T18:34:19.412Z,12.83
2018-10-09T18:36:50.738Z,12.77
2018-10-09T18:39:22.304Z,16.23
2018-10-09T18:41:54.145Z,13.80
2018-10-09T18:44:24.944Z,13.57
2018-10-09T18:46:56.449Z,12.53
2018-10-09T18:49:27.815Z,12.53
2018-10-09T18:51:58.461Z,12.27
2018-10-09T18:54:30.557Z,12.37
2018-10-09T18:57:01.217Z,12.83
2018-10-09T18:59:34.257Z,12.80
2018-10-09T19:02:04.951Z,13.63
2018-10-09T19:04:36.005Z,13.17
2018-10-09T19:07:08.429Z,12.90
2018-10-09T19:09:39.138Z,12.97
2018-10-09T19:12:09.854Z,12.60
2018-10-09T19:14:40.730Z,12.87
2018-10-09T19:17:11.410Z,12.43
2018-10-09T19:19:42.296Z,12.47
2018-10-09T19:22:13.112Z,12.30
2018-10-09T19:24:44.532Z,13.03
2018-10-09T19:27:17.584Z,12.47
2018-10-09T19:29:49.521Z,12.70
2018-10-09T19:32:20.552Z,13.13
2018-10-09T19:34:51.258Z,12.60
2018-10-09T19:37:22.172Z,12.63
2018-10-09T19:39:54.153Z,13.00
2018-10-09T19:42:26.047Z,12.60
2018-10-09T19:44:57.491Z,13.10
2018-10-09T19:47:28.364Z,15.77
2018-10-09T19:49:59.075Z,14.80
2018-10-09T19:52:33.059Z,13.97
2018-10-09T19:55:04.174Z,13.73
2018-10-09T19:57:34.939Z,12.73
2018-10-09T20:00:06.416Z,12.73
2018-10-09T20:02:37.417Z,12.23
2018-10-09T20:05:08.214Z,13.23
2018-10-09T20:07:38.824Z,13.73
2018-10-09T20:10:09.542Z,13.80
2018-10-09T20:12:40.159Z,13.57
2018-10-09T20:15:10.948Z,13.10
2018-10-09T20:17:43.108Z,14.57
2018-10-09T20:20:14.778Z,13.20
2018-10-09T20:22:46.374Z,14.20
2018-10-09T20:25:18.078Z,13.73
2018-10-09T20:27:51.690Z,13.10
2018-10-09T20:30:22.572Z,12.80
2018-10-09T20:32:53.471Z,11.50
2018-10-09T20:35:24.380Z,12.97
2018-10-09T20:37:55.000Z,13.37
2018-10-09T20:40:25.817Z,12.73
2018-10-09T20:42:56.476Z,12.77
2018-10-09T20:45:27.598Z,12.07
2018-10-09T20:47:58.330Z,13.50
2018-10-09T20:50:28.952Z,12.67
2018-10-09T20:52:59.550Z,13.03
2018-10-09T20:55:30.081Z,12.80
2018-10-09T20:58:00.739Z,12.93
2018-10-09T21:00:31.671Z,12.90
2018-10-09T21:03:02.358Z,13.67
2018-10-09T21:05:33.119Z,12.80
2018-10-09T21:08:03.829Z,12.83
2018-10-09T21:10:34.572Z,14.40
2018-10-09T21:13:05.251Z,13.00
2018-10-09T21:15:35.891Z,13.20
2018-10-09T21:18:07.066Z,13.00
2018-10-09T21:20:37.708Z,13.07
2018-10-09T21:23:08.266Z,12.90
2018-10-09T21:25:39.543Z,13.17
2018-10-09T21:28:10.184Z,13.63
2018-10-09T21:30:41.006Z,12.87
2018-10-09T21:33:11.761Z,14.20
2018-10-09T21:35:42.805Z,14.07
2018-10-09T21:38:13.425Z,13.53
2018-10-09T21:40:44.034Z,13.37
2018-10-09T21:43:15.043Z,14.00
2018-10-09T21:45:45.634Z,13.90
2018-10-09T21:48:18.680Z,12.80
2018-10-09T21:50:49.788Z,13.97
2018-10-09T21:53:20.406Z,13.23
2018-10-09T21:55:51.471Z,12.97
2018-10-09T21:58:22.373Z,13.63
2018-10-09T22:00:58.169Z,14.10
2018-10-09T22:03:29.153Z,13.50
2018-10-09T22:05:59.879Z,12.63
2018-10-09T22:08:30.612Z,13.50
2018-10-09T22:11:01.212Z,14.37
2018-10-09T22:13:31.879Z,12.57
2018-10-09T22:16:04.755Z,12.90
2018-10-09T22:18:35.698Z,12.50
2018-10-09T22:21:06.710Z,13.00
2018-10-09T22:23:37.406Z,12.43
2018-10-09T22:26:08.013Z,13.23
2018-10-09T22:28:38.590Z,13.67
2018-10-09T22:31:09.192Z,12.43
2018-10-09T22:33:39.902Z,12.67
2018-10-09T22:36:10.552Z,12.47
2018-10-09T22:38:41.218Z,12.63
2018-10-09T22:41:11.874Z,12.77
2018-10-09T22:43:42.465Z,13.20
2018-10-09T22:46:13.158Z,13.33
2018-10-09T22:48:43.863Z,13.00
2018-10-09T22:51:14.385Z,13.17
2018-10-09T22:53:44.937Z,12.83
2018-10-09T22:56:15.631Z,13.33
2018-10-09T22:58:46.674Z,13.67
2018-10-09T23:01:17.345Z,12.97
2018-10-09T23:03:47.995Z,13.30
2018-10-09T23:06:18.636Z,13.60
2018-10-09T23:08:49.411Z,12.50
2018-10-09T23:11:20.128Z,12.67
2018-10-09T23:13:50.914Z,12.53
2018-10-09T23:16:21.453Z,13.33
2018-10-09T23:18:52.270Z,13.77
2018-10-09T23:21:23.339Z,12.63
2018-10-09T23:23:54.314Z,12.37
2018-10-09T23:26:25.079Z,12.67
2018-10-09T23:28:55.767Z,12.47
2018-10-09T23:31:27.015Z,12.30
2018-10-09T23:33:57.577Z,13.00
2018-10-09T23:36:28.224Z,13.37
2018-10-09T23:38:58.841Z,12.63
2018-10-09T23:41:29.550Z,12.43
2018-10-09T23:44:00.161Z,12.07
2018-10-09T23:46:30.968Z,12.90
2018-10-09T23:49:01.812Z,13.30
2018-10-09T23:51:32.503Z,12.57
2018-10-09T23:54:03.814Z,12.73
2018-10-09T23:56:34.952Z,13.67
2018-10-09T23:59:05.726Z,13.73
